Time;durP1;ratioP1;P1;durP2;ratioP2;P2;SDS_P1;SDS_P2;PMS_P1;PMS_P2;Temp;Humidity;BMP_temperature;BMP_pressure;BME280_temperature;BME280_humidity;BME280_pressure;Samples;Min_cycle;Max_cycle;Signal;HPM_P1;HPM_P2
2023/12/06 00:00:05;;;;;;;18.00;12.25;;;7.30;66.60;9.20;100837.00;;;;5028480;28;20211;-75
2023/12/06 00:02:34;;;;;;;19.60;13.15;;;7.30;66.60;9.10;100835.00;;;;5027490;28;20200;-75
2023/12/06 00:05:02;;;;;;;18.40;12.38;;;7.30;66.50;9.10;100831.00;;;;5029905;28;20247;-75
2023/12/06 00:07:29;;;;;;;20.30;12.88;;;7.30;66.50;9.20;100834.00;;;;5027655;28;20207;-75
2023/12/06 00:09:58;;;;;;;19.70;11.85;;;7.40;66.60;9.20;100843.00;;;;5030465;28;20224;-74
2023/12/06 00:12:25;;;;;;;18.50;12.38;;;7.40;66.60;9.20;100843.00;;;;5029720;28;20274;-75
2023/12/06 00:14:52;;;;;;;18.65;12.35;;;7.40;66.60;9.20;100848.00;;;;5029495;28;20204;-75
2023/12/06 00:17:19;;;;;;;18.05;11.95;;;7.40;66.70;9.20;100837.00;;;;5029135;28;20192;-75
2023/12/06 00:19:46;;;;;;;18.95;12.13;;;7.40;66.60;9.20;100847.00;;;;5027800;28;20204;-75
2023/12/06 00:22:14;;;;;;;18.38;12.73;;;7.40;66.70;9.20;100845.00;;;;5031340;28;20192;-75
2023/12/06 00:24:41;;;;;;;16.70;11.75;;;7.40;66.60;9.20;100850.00;;;;5030938;28;20256;-74
2023/12/06 00:27:08;;;;;;;18.73;12.30;;;7.40;66.50;9.20;100849.00;;;;5029976;28;20202;-74
2023/12/06 00:29:35;;;;;;;19.27;12.02;;;7.40;66.60;9.20;100849.00;;;;5030889;28;20224;-74
2023/12/06 00:32:03;;;;;;;17.50;10.95;;;7.40;66.50;9.20;100854.00;;;;5028889;28;20203;-75
2023/12/06 00:34:30;;;;;;;19.23;12.20;;;7.40;66.60;9.20;100861.00;;;;5030123;28;20200;-74
2023/12/06 00:36:57;;;;;;;19.25;12.48;;;7.40;66.60;9.20;100855.00;;;;5030169;28;20238;-75
2023/12/06 00:39:26;;;;;;;19.27;13.05;;;7.40;66.60;9.20;100861.00;;;;5030499;28;20192;-74
2023/12/06 00:41:53;;;;;;;19.33;12.55;;;7.40;66.70;9.20;100861.00;;;;5029626;28;20207;-76
2023/12/06 00:44:20;;;;;;;18.60;12.15;;;7.40;66.70;9.30;100862.00;;;;5030176;28;20611;-76
2023/12/06 00:46:47;;;;;;;18.33;12.30;;;7.40;66.60;9.30;100861.00;;;;5030219;28;20228;-75
2023/12/06 00:49:14;;;;;;;19.20;13.27;;;7.40;66.60;9.30;100863.00;;;;5029642;28;20655;-76
2023/12/06 00:51:41;;;;;;;17.55;11.18;;;7.50;66.70;9.30;100865.00;;;;5028990;28;20203;-75
2023/12/06 00:54:20;;;;;;;17.25;12.00;;;7.40;66.70;9.20;100872.00;;;;5029551;28;20192;-75
2023/12/06 00:56:48;;;;;;;18.70;11.98;;;7.50;66.80;9.30;100875.00;;;;5027160;28;20238;-74
2023/12/06 00:59:15;;;;;;;18.10;12.55;;;7.40;66.70;9.30;100874.00;;;;5030691;28;20206;-75
2023/12/06 01:01:42;;;;;;;18.52;12.00;;;7.50;66.70;9.30;100881.00;;;;5030242;28;20660;-74
2023/12/06 01:04:09;;;;;;;16.50;11.57;;;7.40;66.60;9.30;100885.00;;;;5029709;28;20283;-75
2023/12/06 01:06:36;;;;;;;19.27;11.90;;;7.50;66.60;9.30;100893.00;;;;5030689;28;20231;-74
2023/12/06 01:09:06;;;;;;;17.63;11.73;;;7.50;66.60;9.30;100892.00;;;;5028908;28;20200;-75
2023/12/06 01:11:33;;;;;;;20.17;12.82;;;7.50;66.60;9.30;100890.00;;;;5022805;28;20207;-74
2023/12/06 01:14:02;;;;;;;20.25;13.05;;;7.50;66.60;9.30;100897.00;;;;5030204;28;20210;-75
2023/12/06 01:16:29;;;;;;;18.45;12.02;;;7.50;66.60;9.30;100897.00;;;;5029768;28;20231;-74
2023/12/06 01:18:56;;;;;;;18.30;12.07;;;7.50;66.70;9.30;100895.00;;;;5030478;28;20203;-75
2023/12/06 01:21:23;;;;;;;16.48;11.75;;;7.50;66.70;9.30;100895.00;;;;5029696;28;20193;-75
2023/12/06 01:23:50;;;;;;;15.98;11.77;;;7.50;66.70;9.30;100907.00;;;;5031028;28;20224;-75
2023/12/06 01:26:17;;;;;;;19.02;12.48;;;7.50;66.70;9.30;100905.00;;;;5030984;28;20315;-75
2023/12/06 01:28:44;;;;;;;16.50;11.60;;;7.50;66.80;9.40;100914.00;;;;5033808;28;20571;-75
2023/12/06 01:31:13;;;;;;;17.60;12.30;;;7.50;66.80;9.40;100917.00;;;;5033859;28;20196;-77
2023/12/06 01:33:40;;;;;;;20.23;12.82;;;7.50;66.90;9.40;100925.00;;;;5034171;28;20291;-74
2023/12/06 01:36:08;;;;;;;17.52;12.43;;;7.50;66.90;9.40;100909.00;;;;5033379;28;20200;-75
2023/12/06 01:38:35;;;;;;;19.10;12.57;;;7.60;66.90;9.40;100918.00;;;;5033649;28;20797;-75
2023/12/06 01:41:02;;;;;;;15.65;10.98;;;7.60;66.90;9.40;100924.00;;;;5034161;28;20207;-75
2023/12/06 01:43:29;;;;;;;17.92;11.65;;;7.60;66.90;9.40;100927.00;;;;5030505;28;20207;-75
2023/12/06 01:45:56;;;;;;;17.15;11.75;;;7.60;66.90;9.50;100924.00;;;;5032752;28;20216;-74
2023/12/06 01:48:25;;;;;;;18.55;12.32;;;7.60;67.60;9.50;100923.00;;;;5032922;28;20221;-75
2023/12/06 01:50:53;;;;;;;18.08;12.77;;;7.60;66.90;9.50;100925.00;;;;5033376;28;20207;-75
2023/12/06 01:53:20;;;;;;;15.65;11.57;;;7.60;66.90;9.50;100932.00;;;;5033549;28;20202;-75
2023/12/06 01:55:47;;;;;;;17.63;12.43;;;7.60;66.90;9.50;100926.00;;;;5032439;28;20195;-74
2023/12/06 01:58:15;;;;;;;17.95;11.40;;;7.70;66.90;9.60;100935.00;;;;5031777;28;20223;-75
2023/12/06 02:00:42;;;;;;;16.95;11.38;;;7.70;66.90;9.60;100936.00;;;;5033137;28;20673;-74
2023/12/06 02:03:10;;;;;;;15.77;10.80;;;7.70;66.90;9.60;100943.00;;;;5037792;28;20626;-74
2023/12/06 02:05:38;;;;;;;16.60;11.85;;;7.70;66.90;9.60;100939.00;;;;5029744;28;20223;-75
2023/12/06 02:08:06;;;;;;;17.75;11.52;;;7.70;66.90;9.70;100939.00;;;;5030828;28;20210;-75
2023/12/06 02:10:33;;;;;;;19.70;12.73;;;7.70;66.90;9.70;100948.00;;;;5033154;28;20550;-74
2023/12/06 02:13:00;;;;;;;17.38;11.20;;;7.70;66.90;9.70;100948.00;;;;5033710;28;20200;-74
2023/12/06 02:15:27;;;;;;;17.10;10.90;;;7.80;66.90;9.70;100947.00;;;;5031543;28;20664;-74
2023/12/06 02:17:55;;;;;;;16.17;11.23;;;7.80;66.90;9.80;100953.00;;;;5029219;28;20192;-75
2023/12/06 02:20:23;;;;;;;16.48;11.57;;;7.80;66.90;9.70;100948.00;;;;5030511;28;20656;-76
2023/12/06 02:22:54;;;;;;;17.65;12.13;;;7.80;66.80;9.70;100944.00;;;;5031567;28;20223;-75
2023/12/06 02:25:23;;;;;;;15.02;10.93;;;7.80;66.80;9.70;100953.00;;;;5035412;28;20705;-74
2023/12/06 02:27:50;;;;;;;15.73;10.60;;;7.80;66.80;9.80;100955.00;;;;5033283;28;20196;-75
2023/12/06 02:30:17;;;;;;;16.83;12.00;;;7.90;66.90;9.80;100955.00;;;;5033625;28;20192;-74
2023/12/06 02:32:44;;;;;;;15.43;10.88;;;7.90;66.90;9.80;100964.00;;;;5032883;28;20207;-75
2023/12/06 02:35:19;;;;;;;16.25;11.02;;;7.90;66.80;9.80;100963.00;;;;5029853;28;20196;-75
2023/12/06 02:37:50;;;;;;;14.88;11.05;;;7.90;66.90;9.80;100962.00;;;;5032314;28;20666;-75
2023/12/06 02:40:20;;;;;;;17.23;11.48;;;7.90;66.90;9.80;100968.00;;;;5032740;28;20196;-75
2023/12/06 02:42:49;;;;;;;15.25;10.40;;;7.90;66.90;9.90;100962.00;;;;5032029;28;20208;-74
2023/12/06 02:45:16;;;;;;;14.90;11.23;;;7.90;66.90;9.90;100964.00;;;;5031286;28;20203;-75
2023/12/06 02:47:43;;;;;;;16.08;11.50;;;8.00;67.00;9.90;100967.00;;;;5031466;28;20254;-74
2023/12/06 02:50:10;;;;;;;16.50;10.65;;;7.90;66.90;9.90;100961.00;;;;5029099;28;20197;-75
2023/12/06 02:52:38;;;;;;;13.77;10.63;;;8.00;66.90;9.90;100971.00;;;;5027869;28;20211;-75
2023/12/06 02:55:06;;;;;;;14.13;9.98;;;8.00;66.90;9.90;100963.00;;;;5030923;28;20228;-75
2023/12/06 02:57:33;;;;;;;16.15;11.45;;;8.00;66.80;9.90;100961.00;;;;5031432;28;20220;-75
2023/12/06 03:00:02;;;;;;;14.23;10.00;;;8.00;66.80;9.90;100959.00;;;;5030563;28;20198;-75
2023/12/06 03:02:29;;;;;;;15.30;10.38;;;8.00;66.80;9.90;100958.00;;;;5031127;28;20192;-75
2023/12/06 03:04:56;;;;;;;15.23;10.32;;;8.00;67.50;9.90;100962.00;;;;5032394;28;20204;-74
2023/12/06 03:07:23;;;;;;;16.58;10.95;;;8.00;66.80;9.90;100963.00;;;;5030775;28;20216;-75
2023/12/06 03:09:51;;;;;;;15.98;10.80;;;8.00;66.80;9.90;100960.00;;;;5029714;28;20226;-75
2023/12/06 03:12:18;;;;;;;12.30;9.52;;;8.00;66.80;9.90;100961.00;;;;5029996;28;20207;-75
2023/12/06 03:14:45;;;;;;;15.75;10.43;;;8.00;66.80;9.90;100961.00;;;;5029485;28;20207;-75
2023/12/06 03:17:14;;;;;;;13.45;9.85;;;8.00;66.80;9.90;100961.00;;;;5031890;28;20189;-75
2023/12/06 03:19:41;;;;;;;14.07;9.48;;;8.00;66.80;9.90;100966.00;;;;5031318;28;20196;-76
2023/12/06 03:22:08;;;;;;;12.02;9.32;;;8.00;66.80;9.90;100970.00;;;;5025315;28;20523;-75
2023/12/06 03:24:35;;;;;;;15.02;9.77;;;8.00;66.80;9.90;100968.00;;;;5025784;28;20225;-75
2023/12/06 03:27:02;;;;;;;15.23;10.95;;;8.00;66.90;9.90;100971.00;;;;5030243;28;20220;-75
2023/12/06 03:29:29;;;;;;;14.15;10.38;;;8.00;66.90;9.90;100971.00;;;;5031449;28;20196;-75
2023/12/06 03:31:56;;;;;;;13.13;9.10;;;8.00;66.90;9.90;100973.00;;;;5030465;28;20196;-75
2023/12/06 03:34:25;;;;;;;12.15;9.93;;;8.00;67.00;9.90;100966.00;;;;5029303;28;20195;-75
2023/12/06 03:36:52;;;;;;;14.43;9.65;;;8.00;67.00;9.90;100973.00;;;;5031057;28;20203;-75
2023/12/06 03:39:19;;;;;;;13.60;9.82;;;8.10;67.10;10.00;100974.00;;;;5031566;28;20668;-74
2023/12/06 03:41:46;;;;;;;13.77;10.15;;;8.00;67.00;10.00;100983.00;;;;5030669;28;20206;-74
2023/12/06 03:44:13;;;;;;;15.63;10.25;;;8.00;67.10;10.00;100980.00;;;;5030545;28;20555;-74
2023/12/06 03:46:40;;;;;;;13.98;9.30;;;8.10;67.10;10.00;100982.00;;;;5029683;28;20224;-74
2023/12/06 03:49:07;;;;;;;11.52;9.10;;;8.10;67.10;10.00;100984.00;;;;5031034;28;20657;-74
2023/12/06 03:51:36;;;;;;;11.85;8.50;;;8.10;67.10;10.00;100990.00;;;;5030410;28;20200;-74
2023/12/06 03:54:04;;;;;;;10.73;8.80;;;8.10;67.10;10.00;100989.00;;;;5027475;28;20200;-75
2023/12/06 03:56:31;;;;;;;11.35;7.90;;;8.10;67.10;10.00;100985.00;;;;5028261;28;20212;-74
2023/12/06 03:58:59;;;;;;;14.77;8.93;;;8.10;67.80;10.10;100993.00;;;;5029771;28;20196;-75
2023/12/06 04:01:26;;;;;;;12.50;8.63;;;8.10;67.80;10.10;100988.00;;;;5030654;28;20208;-75
2023/12/06 04:03:53;;;;;;;12.57;9.13;;;8.10;67.10;10.10;100988.00;;;;5031044;28;20203;-74
2023/12/06 04:06:20;;;;;;;11.18;8.77;;;8.20;67.20;10.10;100992.00;;;;5026928;28;20212;-75
2023/12/06 04:08:48;;;;;;;10.35;8.50;;;8.10;67.10;10.10;100985.00;;;;5027154;28;20196;-75
2023/12/06 04:11:16;;;;;;;13.25;8.77;;;8.10;67.10;10.10;100998.00;;;;5031211;28;20549;-74
2023/12/06 04:13:43;;;;;;;9.52;7.68;;;8.20;67.10;10.10;100993.00;;;;5030459;28;20184;-75
2023/12/06 04:16:10;;;;;;;11.32;7.88;;;8.20;67.10;10.10;101007.00;;;;5029070;28;20220;-74
2023/12/06 04:18:37;;;;;;;10.13;7.53;;;8.20;67.10;10.10;101001.00;;;;5029937;28;20579;-74
2023/12/06 04:21:06;;;;;;;10.80;8.20;;;8.20;67.20;10.10;101005.00;;;;5030782;28;20212;-74
2023/12/06 04:23:33;;;;;;;10.38;8.02;;;8.20;67.20;10.10;101009.00;;;;5030198;28;20192;-74
2023/12/06 04:26:02;;;;;;;10.13;7.65;;;8.20;67.20;10.10;101002.00;;;;5026417;28;20192;-74
2023/12/06 04:28:29;;;;;;;8.70;7.15;;;8.20;67.20;10.10;101009.00;;;;5027848;28;20184;-74
2023/12/06 04:30:56;;;;;;;9.23;6.97;;;8.20;67.20;10.10;101009.00;;;;5030666;28;20196;-74
2023/12/06 04:33:23;;;;;;;11.95;8.02;;;8.20;67.20;10.10;101013.00;;;;5025525;28;20196;-75
2023/12/06 04:35:51;;;;;;;11.68;7.68;;;8.20;67.20;10.20;101014.00;;;;5029819;28;20206;-74
2023/12/06 04:38:17;;;;;;;10.02;7.72;;;8.20;67.20;10.10;101016.00;;;;5030656;28;20200;-74
2023/12/06 04:40:45;;;;;;;9.60;7.75;;;8.20;67.30;10.20;101021.00;;;;5030794;28;20211;-75
2023/12/06 04:43:13;;;;;;;10.30;7.45;;;8.30;67.40;10.20;101022.00;;;;5029991;28;20650;-75
2023/12/06 04:45:40;;;;;;;9.35;7.40;;;8.30;67.40;10.20;101028.00;;;;5029671;28;20212;-75
2023/12/06 04:48:07;;;;;;;14.38;7.93;;;8.30;67.30;10.20;101028.00;;;;5030223;28;20228;-75
2023/12/06 04:50:34;;;;;;;10.30;7.63;;;8.30;67.40;10.20;101031.00;;;;5029270;28;20209;-74
2023/12/06 04:53:01;;;;;;;8.95;7.13;;;8.30;67.40;10.20;101025.00;;;;5029676;28;20214;-74
2023/12/06 04:55:28;;;;;;;11.13;7.75;;;8.30;67.40;10.30;101019.00;;;;5030007;28;20283;-75
2023/12/06 04:57:55;;;;;;;10.75;7.90;;;8.30;67.40;10.30;101019.00;;;;5029433;28;20220;-75
2023/12/06 05:00:26;;;;;;;9.43;7.45;;;8.30;67.40;10.30;101033.00;;;;5034368;28;20204;-75
2023/12/06 05:02:53;;;;;;;9.68;7.97;;;8.40;68.20;10.30;101029.00;;;;5034986;28;20586;-75
2023/12/06 05:05:20;;;;;;;9.20;7.15;;;8.40;67.40;10.30;101031.00;;;;5034627;28;20692;-75
2023/12/06 05:07:47;;;;;;;8.88;7.55;;;8.40;67.40;10.30;101032.00;;;;5030323;28;20588;-75
2023/12/06 05:10:14;;;;;;;8.38;6.93;;;8.40;67.40;10.30;101037.00;;;;5033199;28;20666;-75
2023/12/06 05:12:41;;;;;;;9.13;7.20;;;8.50;67.40;10.30;101033.00;;;;5034108;28;20202;-74
2023/12/06 05:15:10;;;;;;;10.60;7.25;;;8.40;67.30;10.30;101036.00;;;;5034590;28;20199;-75
2023/12/06 05:17:39;;;;;;;9.85;7.28;;;8.50;67.40;10.30;101037.00;;;;5033608;28;20204;-74
2023/12/06 05:20:10;;;;;;;8.10;6.72;;;8.40;67.40;10.30;101038.00;;;;5034321;28;20192;-75
2023/12/06 05:22:38;;;;;;;9.40;6.85;;;8.40;67.40;10.40;101041.00;;;;5033574;28;20550;-74
2023/12/06 05:25:07;;;;;;;10.27;6.82;;;8.50;67.40;10.40;101035.00;;;;5031896;28;20224;-74
2023/12/06 05:27:34;;;;;;;9.02;6.97;;;8.50;67.40;10.40;101038.00;;;;5032260;28;20235;-75
2023/12/06 05:30:02;;;;;;;7.80;6.47;;;8.50;67.50;10.40;101046.00;;;;5033811;28;20200;-74
2023/12/06 05:32:29;;;;;;;8.57;6.78;;;8.50;67.40;10.40;101051.00;;;;5033273;28;20212;-74
2023/12/06 05:34:58;;;;;;;8.57;6.75;;;8.50;67.50;10.40;101047.00;;;;5025500;28;20196;-75
2023/12/06 05:37:25;;;;;;;8.18;6.65;;;8.50;67.50;10.40;101049.00;;;;5026000;28;20192;-75
2023/12/06 05:39:52;;;;;;;7.88;6.28;;;8.50;67.50;10.40;101062.00;;;;5033165;28;20196;-75
2023/12/06 05:42:19;;;;;;;8.88;6.10;;;8.50;67.50;10.40;101058.00;;;;5030893;28;20668;-75
2023/12/06 05:44:46;;;;;;;7.65;5.50;;;8.50;67.50;10.40;101067.00;;;;5033507;28;20304;-74
2023/12/06 05:47:13;;;;;;;10.43;6.40;;;8.60;67.50;10.40;101064.00;;;;5032862;28;20216;-75
2023/12/06 05:49:40;;;;;;;7.35;6.22;;;8.60;67.60;10.40;101059.00;;;;5031517;28;20640;-75
2023/12/06 05:52:08;;;;;;;8.25;6.18;;;8.60;67.60;10.50;101060.00;;;;5032947;28;20211;-75
2023/12/06 05:54:35;;;;;;;8.27;6.25;;;8.60;67.60;10.50;101067.00;;;;5032951;28;20211;-75
2023/12/06 05:57:03;;;;;;;8.90;6.38;;;8.60;67.60;10.50;101063.00;;;;5032253;28;20212;-75
2023/12/06 05:59:30;;;;;;;9.50;6.10;;;8.60;67.50;10.50;101068.00;;;;5031880;28;20231;-75
2023/12/06 06:01:57;;;;;;;13.60;6.68;;;8.60;67.50;10.50;101065.00;;;;5033438;28;20275;-74
2023/12/06 06:04:26;;;;;;;8.00;6.13;;;8.60;67.50;10.50;101069.00;;;;5034037;28;20197;-74
2023/12/06 06:06:53;;;;;;;11.23;7.45;;;8.60;67.50;10.50;101079.00;;;;5033006;28;20258;-75
2023/12/06 06:09:21;;;;;;;9.85;6.88;;;8.60;67.50;10.50;101079.00;;;;5031174;28;20188;-75
2023/12/06 06:11:49;;;;;;;8.80;6.57;;;8.70;67.60;10.50;101074.00;;;;5033258;28;20561;-74
2023/12/06 06:14:16;;;;;;;8.35;6.20;;;8.70;67.70;10.60;101081.00;;;;5026300;28;20674;-75
2023/12/06 06:16:43;;;;;;;8.23;6.32;;;8.70;67.60;10.50;101075.00;;;;5027607;28;20208;-74
2023/12/06 06:19:10;;;;;;;8.13;6.35;;;8.70;67.60;10.60;101080.00;;;;5032105;28;20197;-74
2023/12/06 06:21:37;;;;;;;9.75;6.78;;;8.70;67.60;10.60;101083.00;;;;5031502;28;20688;-75
2023/12/06 06:24:06;;;;;;;9.75;6.78;;;8.70;67.60;10.60;101090.00;;;;5029246;28;20319;-75
2023/12/06 06:26:35;;;;;;;9.45;7.32;;;8.80;67.70;10.60;101094.00;;;;5031200;28;20555;-74
2023/12/06 06:29:02;;;;;;;9.05;6.80;;;8.80;67.50;10.60;101089.00;;;;5031696;28;20224;-74
2023/12/06 06:31:29;;;;;;;9.77;6.47;;;8.80;67.50;10.60;101088.00;;;;5029440;28;20200;-74
2023/12/06 06:34:01;;;;;;;8.23;6.45;;;8.80;67.50;10.60;101099.00;;;;5032791;28;20550;-74
2023/12/06 06:36:28;;;;;;;8.73;6.25;;;8.80;67.50;10.70;101101.00;;;;5032308;28;20185;-75
2023/12/06 06:38:55;;;;;;;7.63;6.25;;;8.80;67.50;10.70;101101.00;;;;5032223;28;20488;-75
2023/12/06 06:41:24;;;;;;;10.23;6.22;;;8.80;67.50;10.70;101106.00;;;;5030462;28;20218;-75
2023/12/06 06:43:52;;;;;;;8.55;6.50;;;8.80;67.50;10.70;101102.00;;;;5020588;28;20688;-75
2023/12/06 06:46:19;;;;;;;10.13;7.57;;;8.80;67.50;10.70;101108.00;;;;5030668;28;20196;-74
2023/12/06 06:48:48;;;;;;;7.38;6.50;;;8.80;67.40;10.70;101110.00;;;;5026553;28;20705;-75
2023/12/06 06:51:15;;;;;;;10.88;6.85;;;8.80;67.40;10.70;101111.00;;;;5031559;28;20193;-75
2023/12/06 06:53:42;;;;;;;8.95;6.60;;;8.80;67.40;10.70;101114.00;;;;5032035;28;20291;-75
2023/12/06 06:56:09;;;;;;;7.93;5.93;;;8.90;67.40;10.70;101108.00;;;;5033314;28;20653;-75
2023/12/06 06:58:36;;;;;;;8.93;6.57;;;8.80;67.40;10.70;101112.00;;;;5027339;28;20196;-74
2023/12/06 07:01:05;;;;;;;9.18;6.57;;;8.90;67.40;10.70;101121.00;;;;5027052;28;20295;-75
2023/12/06 07:03:32;;;;;;;9.07;6.65;;;8.90;67.40;10.70;101126.00;;;;5030238;28;20469;-73
2023/12/06 07:06:01;;;;;;;8.32;6.20;;;8.90;67.40;10.70;101123.00;;;;5027252;28;20197;-76
2023/12/06 07:08:29;;;;;;;9.32;6.38;;;8.90;67.40;10.70;101121.00;;;;5021010;28;20690;-76
2023/12/06 07:10:57;;;;;;;10.45;6.55;;;8.90;67.40;10.80;101132.00;;;;5020722;28;20243;-76
2023/12/06 07:13:25;;;;;;;8.60;6.50;;;8.90;67.40;10.80;101128.00;;;;5031850;28;20535;-76
2023/12/06 07:15:53;;;;;;;7.88;6.75;;;8.90;67.40;10.80;101136.00;;;;5032332;28;20299;-76
2023/12/06 07:18:21;;;;;;;9.52;6.43;;;8.90;67.30;10.80;101132.00;;;;5031705;28;20250;-77
2023/12/06 07:20:49;;;;;;;9.52;6.30;;;8.90;67.30;10.80;101135.00;;;;5028267;28;20613;-76
2023/12/06 07:23:16;;;;;;;9.95;6.40;;;8.90;67.20;10.80;101138.00;;;;5032646;28;20250;-77
2023/12/06 07:25:43;;;;;;;7.82;5.68;;;9.00;67.30;10.90;101146.00;;;;5037162;28;20724;-77
2023/12/06 07:28:10;;;;;;;10.95;5.85;;;9.00;67.30;10.90;101141.00;;;;5030350;28;20295;-76
2023/12/06 07:30:37;;;;;;;8.05;6.03;;;9.00;67.20;10.90;101145.00;;;;5030853;28;20193;-77
2023/12/06 07:33:05;;;;;;;8.13;6.07;;;9.00;67.20;10.90;101149.00;;;;5031838;28;20557;-76
2023/12/06 07:35:35;;;;;;;9.68;6.53;;;9.00;67.20;10.90;101147.00;;;;5031550;28;20200;-76
2023/12/06 07:38:05;;;;;;;8.07;6.32;;;9.00;67.20;10.90;101151.00;;;;5032198;28;20419;-77
2023/12/06 07:40:32;;;;;;;8.90;6.38;;;9.00;67.30;10.90;101164.00;;;;5039142;28;20208;-76
2023/12/06 07:42:59;;;;;;;8.05;5.80;;;9.10;67.30;10.90;101164.00;;;;5031097;28;20576;-76
2023/12/06 07:45:26;;;;;;;8.50;5.70;;;9.10;67.20;10.90;101172.00;;;;5031605;28;20292;-76
2023/12/06 07:47:53;;;;;;;8.00;6.30;;;9.00;67.10;11.00;101163.00;;;;5030804;28;20216;-75
2023/12/06 07:50:21;;;;;;;8.73;6.20;;;9.00;67.10;11.00;101167.00;;;;5031018;28;20203;-75
2023/12/06 07:52:50;;;;;;;8.35;6.10;;;9.00;67.80;11.00;101170.00;;;;5031015;28;20200;-76
2023/12/06 07:55:17;;;;;;;11.45;6.00;;;9.10;67.20;11.00;101174.00;;;;5030713;28;20189;-75
2023/12/06 07:57:44;;;;;;;9.85;5.95;;;9.00;67.10;11.00;101173.00;;;;5034233;28;20712;-76
2023/12/06 08:00:13;;;;;;;6.63;5.40;;;9.10;67.20;11.00;101171.00;;;;5031504;28;20302;-76
2023/12/06 08:02:42;;;;;;;8.50;6.22;;;9.10;67.20;11.00;101172.00;;;;5031502;28;20219;-76
2023/12/06 08:05:10;;;;;;;8.23;6.00;;;9.10;67.10;11.00;101166.00;;;;5030704;28;20196;-76
2023/12/06 08:07:38;;;;;;;8.27;6.28;;;9.10;67.10;11.00;101168.00;;;;5024012;28;20224;-75
2023/12/06 08:10:10;;;;;;;7.10;5.60;;;9.10;67.10;11.00;101166.00;;;;5031832;28;20203;-76
2023/12/06 08:12:38;;;;;;;11.88;6.25;;;9.10;67.20;11.00;101169.00;;;;5030969;28;20198;-75
2023/12/06 08:15:06;;;;;;;7.82;5.65;;;9.10;67.20;11.00;101176.00;;;;5027067;28;20192;-77
2023/12/06 08:18:13;;;;;;;8.73;6.32;;;9.10;67.10;10.90;101181.00;;;;5028957;28;20207;-76
2023/12/06 08:20:40;;;;;;;8.35;5.68;;;9.10;67.10;11.00;101179.00;;;;5027257;28;20700;-76
2023/12/06 08:23:07;;;;;;;7.93;5.68;;;9.10;67.10;11.00;101180.00;;;;5030261;28;20204;-76
2023/12/06 08:25:36;;;;;;;7.68;5.75;;;9.10;67.00;11.00;101185.00;;;;5029930;28;20236;-75
2023/12/06 08:28:04;;;;;;;7.93;6.05;;;9.10;67.10;11.00;101190.00;;;;5031088;28;20216;-76
2023/12/06 08:30:32;;;;;;;7.50;5.72;;;9.10;67.10;11.10;101196.00;;;;5028033;28;20193;-76
2023/12/06 08:32:58;;;;;;;8.77;5.97;;;9.10;67.10;11.10;101200.00;;;;5028126;28;20227;-76
2023/12/06 08:35:25;;;;;;;8.52;5.95;;;9.10;67.20;11.10;101200.00;;;;5022525;28;20197;-76
2023/12/06 08:37:52;;;;;;;9.18;5.72;;;9.10;67.20;11.10;101197.00;;;;5031105;28;20198;-77
2023/12/06 08:40:19;;;;;;;8.75;5.90;;;9.10;67.30;11.10;101202.00;;;;5030855;28;20204;-76
2023/12/06 08:42:48;;;;;;;8.00;5.63;;;9.10;67.30;11.10;101201.00;;;;5029801;28;20193;-76
2023/12/06 08:45:15;;;;;;;7.20;5.55;;;9.10;67.30;11.10;101212.00;;;;5027708;28;20196;-76
2023/12/06 08:47:42;;;;;;;10.68;6.30;;;9.20;67.30;11.10;101219.00;;;;5025454;28;20227;-77
2023/12/06 08:50:10;;;;;;;9.02;6.03;;;9.10;67.30;11.10;101221.00;;;;5029852;28;20188;-77
2023/12/06 08:52:37;;;;;;;8.75;6.53;;;9.20;67.30;11.20;101214.00;;;;5029958;28;20287;-77
2023/12/06 08:55:06;;;;;;;7.18;5.57;;;9.20;67.30;11.10;101221.00;;;;5029746;28;20195;-77
2023/12/06 08:57:33;;;;;;;8.60;6.40;;;9.20;67.20;11.10;101231.00;;;;5029155;28;20585;-78
2023/12/06 09:00:03;;;;;;;6.65;5.55;;;9.20;67.20;11.10;101223.00;;;;5030862;28;20197;-77
2023/12/06 09:02:30;;;;;;;8.77;6.05;;;9.20;67.00;11.10;101226.00;;;;5030660;28;20228;-76
2023/12/06 09:04:57;;;;;;;7.72;5.72;;;9.20;67.00;11.10;101231.00;;;;5036976;28;20196;-76
2023/12/06 09:07:26;;;;;;;9.07;6.20;;;9.20;67.00;11.10;101232.00;;;;5028695;28;20558;-76
2023/12/06 09:09:53;;;;;;;8.50;5.57;;;9.10;66.80;11.00;101231.00;;;;5027423;28;20192;-77
2023/12/06 09:12:20;;;;;;;10.32;5.65;;;9.10;66.80;11.00;101236.00;;;;5030590;28;20203;-76
2023/12/06 09:14:48;;;;;;;8.35;5.90;;;9.10;66.80;11.00;101243.00;;;;5030491;28;20232;-77
2023/12/06 09:17:16;;;;;;;8.85;6.18;;;9.10;66.80;11.00;101244.00;;;;5031053;28;20192;-77
2023/12/06 09:19:43;;;;;;;8.35;6.07;;;9.00;66.70;11.00;101245.00;;;;5030349;28;20558;-78
2023/12/06 09:22:10;;;;;;;8.93;6.30;;;9.00;66.70;10.90;101241.00;;;;5023469;28;20192;-77
2023/12/06 09:24:37;;;;;;;10.32;6.75;;;9.00;66.70;10.90;101244.00;;;;5038590;28;20224;-76
2023/12/06 09:27:05;;;;;;;7.55;5.85;;;9.00;66.80;10.90;101240.00;;;;5029853;28;20760;-77
2023/12/06 09:29:33;;;;;;;8.32;6.47;;;9.00;66.90;10.90;101240.00;;;;5030984;28;20212;-76
2023/12/06 09:32:00;;;;;;;9.05;6.60;;;9.00;66.90;10.90;101239.00;;;;5030023;28;20208;-76
2023/12/06 09:34:29;;;;;;;8.80;6.63;;;9.00;67.00;10.90;101246.00;;;;5029874;28;20192;-76
2023/12/06 09:36:55;;;;;;;8.32;6.07;;;9.00;67.10;10.90;101245.00;;;;5030221;28;20192;-77
2023/12/06 09:39:23;;;;;;;7.63;5.88;;;9.00;67.20;10.90;101254.00;;;;5029867;28;20203;-77
2023/12/06 09:41:51;;;;;;;10.07;7.55;;;9.00;67.20;10.90;101256.00;;;;5030319;28;20199;-76
2023/12/06 09:44:18;;;;;;;8.27;6.53;;;9.00;67.20;10.90;101269.00;;;;5029710;28;20201;-77
2023/12/06 09:46:49;;;;;;;8.27;5.80;;;9.00;67.20;10.90;101259.00;;;;5034361;28;20279;-77
2023/12/06 09:49:16;;;;;;;8.18;6.07;;;9.00;67.30;11.00;101259.00;;;;5032478;28;20235;-77
2023/12/06 09:51:45;;;;;;;10.63;6.80;;;9.00;67.20;11.00;101272.00;;;;5034092;28;20192;-77
2023/12/06 09:54:12;;;;;;;10.05;6.65;;;9.10;67.20;11.00;101275.00;;;;5032571;28;20232;-77
2023/12/06 09:56:39;;;;;;;9.90;7.22;;;9.10;67.20;11.00;101278.00;;;;5030631;28;20220;-77
2023/12/06 09:59:06;;;;;;;8.25;6.57;;;9.10;67.20;11.10;101280.00;;;;5032027;28;20557;-77
2023/12/06 10:01:33;;;;;;;8.80;7.10;;;9.10;67.20;11.10;101273.00;;;;5032400;28;20212;-78
2023/12/06 10:04:04;;;;;;;9.60;7.20;;;9.10;67.20;11.10;101286.00;;;;5031632;28;20193;-77
2023/12/06 10:06:31;;;;;;;10.63;6.05;;;9.20;67.30;11.10;101294.00;;;;5031871;28;20189;-77
2023/12/06 10:09:00;;;;;;;9.32;5.88;;;9.20;67.20;11.10;101285.00;;;;5031976;28;20216;-77
2023/12/06 10:11:28;;;;;;;7.82;5.82;;;9.20;67.00;11.20;101283.00;;;;5032727;28;20307;-78
2023/12/06 10:13:55;;;;;;;9.25;6.32;;;9.30;66.70;11.20;101272.00;;;;5027957;28;20193;-77
2023/12/06 10:16:22;;;;;;;7.47;5.55;;;9.30;66.60;11.20;101279.00;;;;5032889;28;20189;-77
2023/12/06 10:48:10;;;;;;;10.65;5.00;;;7.30;71.00;7.30;101283.00;;;;5021927;27;1919165;-76
2023/12/06 10:50:38;;;;;;;9.55;6.35;;;7.20;71.30;8.10;101279.00;;;;5062801;28;20509;-76
2023/12/06 10:53:08;;;;;;;10.32;6.93;;;7.40;71.10;8.70;101271.00;;;;5063521;28;20191;-76
2023/12/06 10:55:38;;;;;;;8.25;6.35;;;7.70;70.60;9.20;101274.00;;;;5057522;28;20195;-76
2023/12/06 10:58:07;;;;;;;9.80;6.43;;;8.00;70.20;9.70;101273.00;;;;5062647;28;20203;-76
2023/12/06 11:00:35;;;;;;;10.27;6.53;;;8.20;69.90;10.00;101273.00;;;;5061433;28;20206;-76
2023/12/06 11:03:03;;;;;;;7.47;6.00;;;8.50;69.70;10.40;101267.00;;;;5059439;28;20200;-76
2023/12/06 11:05:39;;;;;;;8.95;5.85;;;8.70;69.50;10.60;101263.00;;;;5063668;28;20233;-77
2023/12/06 11:08:40;;;;;;;7.90;5.80;;;8.90;69.30;10.90;101269.00;;;;5062299;28;20226;-77
2023/12/06 11:11:40;;;;;;;8.57;5.90;;;9.20;68.90;11.20;101267.00;;;;5059202;28;20206;-78
2023/12/06 11:14:37;;;;;;;5.93;4.60;;;9.40;68.80;11.40;101271.00;;;;5059094;28;20194;-78
2023/12/06 11:17:19;;;;;;;6.25;4.57;;;9.60;68.30;11.60;101267.00;;;;5066027;28;20191;-78
2023/12/06 11:19:46;;;;;;;11.10;5.32;;;9.80;67.80;11.80;101252.00;;;;5050209;28;20195;-79
2023/12/06 11:22:15;;;;;;;7.78;5.50;;;9.90;67.50;11.80;101268.00;;;;5059481;28;20184;-78